sensor_id;sensor_type;location;lat;lon;timestamp;P1;durP1;ratioP1;P2;durP2;ratioP2
46054;SDS011;31788;6.954;-71.872;2022-10-16T00:01:27;45.13;;;7.82;;
46054;SDS011;31788;6.954;-71.872;2022-10-16T00:03:55;56.63;;;9.20;;
46054;SDS011;31788;6.954;-71.872;2022-10-16T00:06:23;51.78;;;8.70;;
46054;SDS011;31788;6.954;-71.872;2022-10-16T00:08:51;50.17;;;9.18;;
46054;SDS011;31788;6.954;-71.872;2022-10-16T00:11:22;38.80;;;8.57;;
46054;SDS011;31788;6.954;-71.872;2022-10-16T00:13:58;24.67;;;8.10;;
46054;SDS011;31788;6.954;-71.872;2022-10-16T00:16:26;19.73;;;6.78;;
46054;SDS011;31788;6.954;-71.872;2022-10-16T00:18:53;18.75;;;6.45;;
46054;SDS011;31788;6.954;-71.872;2022-10-16T00:21:22;16.98;;;6.10;;
46054;SDS011;31788;6.954;-71.872;2022-10-16T00:23:51;17.00;;;5.60;;
46054;SDS011;31788;6.954;-71.872;2022-10-16T00:29:41;14.77;;;6.65;;
46054;SDS011;31788;6.954;-71.872;2022-10-16T00:32:08;13.88;;;6.20;;
46054;SDS011;31788;6.954;-71.872;2022-10-16T00:34:35;14.70;;;6.55;;
46054;SDS011;31788;6.954;-71.872;2022-10-16T00:37:05;16.30;;;7.43;;
46054;SDS011;31788;6.954;-71.872;2022-10-16T00:39:32;15.30;;;7.72;;
46054;SDS011;31788;6.954;-71.872;2022-10-16T00:41:58;14.70;;;8.02;;
46054;SDS011;31788;6.954;-71.872;2022-10-16T00:44:44;13.60;;;6.72;;
46054;SDS011;31788;6.954;-71.872;2022-10-16T00:53:16;12.32;;;6.53;;
46054;SDS011;31788;6.954;-71.872;2022-10-16T00:58:50;10.80;;;5.38;;
46054;SDS011;31788;6.954;-71.872;2022-10-16T01:01:17;12.32;;;4.70;;
46054;SDS011;31788;6.954;-71.872;2022-10-16T01:04:05;8.73;;;4.23;;
46054;SDS011;31788;6.954;-71.872;2022-10-16T01:06:52;11.70;;;7.97;;
46054;SDS011;31788;6.954;-71.872;2022-10-16T01:09:35;32.28;;;25.73;;
46054;SDS011;31788;6.954;-71.872;2022-10-16T01:17:12;19.35;;;15.68;;
46054;SDS011;31788;6.954;-71.872;2022-10-16T01:19:51;15.75;;;9.38;;
46054;SDS011;31788;6.954;-71.872;2022-10-16T01:23:27;15.27;;;9.88;;
46054;SDS011;31788;6.954;-71.872;2022-10-16T01:28:08;14.70;;;9.95;;
46054;SDS011;31788;6.954;-71.872;2022-10-16T01:30:38;13.20;;;8.40;;
46054;SDS011;31788;6.954;-71.872;2022-10-16T01:33:15;9.73;;;6.68;;
46054;SDS011;31788;6.954;-71.872;2022-10-16T01:35:52;10.65;;;6.68;;
46054;SDS011;31788;6.954;-71.872;2022-10-16T01:38:25;10.52;;;5.65;;
46054;SDS011;31788;6.954;-71.872;2022-10-16T01:41:07;11.48;;;5.65;;
46054;SDS011;31788;6.954;-71.872;2022-10-16T01:43:53;9.23;;;5.10;;
46054;SDS011;31788;6.954;-71.872;2022-10-16T01:46:27;10.10;;;4.82;;
46054;SDS011;31788;6.954;-71.872;2022-10-16T01:48:56;11.05;;;4.80;;
46054;SDS011;31788;6.954;-71.872;2022-10-16T01:51:23;9.55;;;4.65;;
46054;SDS011;31788;6.954;-71.872;2022-10-16T01:53:53;11.60;;;6.47;;
46054;SDS011;31788;6.954;-71.872;2022-10-16T01:56:22;13.20;;;8.10;;
46054;SDS011;31788;6.954;-71.872;2022-10-16T01:59:00;13.25;;;7.10;;
46054;SDS011;31788;6.954;-71.872;2022-10-16T02:01:33;12.82;;;6.15;;
46054;SDS011;31788;6.954;-71.872;2022-10-16T02:04:18;13.55;;;5.97;;
46054;SDS011;31788;6.954;-71.872;2022-10-16T02:06:46;11.68;;;5.50;;
46054;SDS011;31788;6.954;-71.872;2022-10-16T02:09:13;9.30;;;5.05;;
46054;SDS011;31788;6.954;-71.872;2022-10-16T02:11:42;11.73;;;4.60;;
46054;SDS011;31788;6.954;-71.872;2022-10-16T02:14:09;7.85;;;4.15;;
46054;SDS011;31788;6.954;-71.872;2022-10-16T02:16:40;9.88;;;3.30;;
46054;SDS011;31788;6.954;-71.872;2022-10-16T02:19:09;8.65;;;3.75;;
46054;SDS011;31788;6.954;-71.872;2022-10-16T02:24:21;11.93;;;3.15;;
46054;SDS011;31788;6.954;-71.872;2022-10-16T02:27:09;6.07;;;2.60;;
46054;SDS011;31788;6.954;-71.872;2022-10-16T02:29:52;7.53;;;2.90;;
46054;SDS011;31788;6.954;-71.872;2022-10-16T02:32:28;8.73;;;2.50;;
46054;SDS011;31788;6.954;-71.872;2022-10-16T02:35:01;8.85;;;2.60;;
46054;SDS011;31788;6.954;-71.872;2022-10-16T02:37:29;6.40;;;2.40;;
46054;SDS011;31788;6.954;-71.872;2022-10-16T02:39:59;6.35;;;2.17;;
46054;SDS011;31788;6.954;-71.872;2022-10-16T02:42:28;7.15;;;2.10;;
46054;SDS011;31788;6.954;-71.872;2022-10-16T02:44:59;6.88;;;2.25;;
46054;SDS011;31788;6.954;-71.872;2022-10-16T02:47:25;6.07;;;2.20;;
46054;SDS011;31788;6.954;-71.872;2022-10-16T02:49:52;6.60;;;2.03;;
46054;SDS011;31788;6.954;-71.872;2022-10-16T02:52:18;5.73;;;1.90;;
46054;SDS011;31788;6.954;-71.872;2022-10-16T02:54:45;8.50;;;2.30;;
46054;SDS011;31788;6.954;-71.872;2022-10-16T02:57:12;8.55;;;2.20;;
46054;SDS011;31788;6.954;-71.872;2022-10-16T02:59:38;6.40;;;1.83;;
46054;SDS011;31788;6.954;-71.872;2022-10-16T03:02:07;4.22;;;1.70;;
46054;SDS011;31788;6.954;-71.872;2022-10-16T03:04:34;6.20;;;1.83;;
46054;SDS011;31788;6.954;-71.872;2022-10-16T03:07:01;9.13;;;2.00;;
46054;SDS011;31788;6.954;-71.872;2022-10-16T03:09:27;13.90;;;2.47;;
46054;SDS011;31788;6.954;-71.872;2022-10-16T03:11:54;12.18;;;2.53;;
46054;SDS011;31788;6.954;-71.872;2022-10-16T03:14:21;11.32;;;2.20;;
46054;SDS011;31788;6.954;-71.872;2022-10-16T03:16:47;10.80;;;2.25;;
46054;SDS011;31788;6.954;-71.872;2022-10-16T03:19:15;8.60;;;2.03;;
46054;SDS011;31788;6.954;-71.872;2022-10-16T03:21:43;6.03;;;1.80;;
46054;SDS011;31788;6.954;-71.872;2022-10-16T03:24:10;7.25;;;2.35;;
46054;SDS011;31788;6.954;-71.872;2022-10-16T03:26:36;7.20;;;2.20;;
46054;SDS011;31788;6.954;-71.872;2022-10-16T03:29:03;5.47;;;1.83;;
46054;SDS011;31788;6.954;-71.872;2022-10-16T03:31:30;5.63;;;2.03;;
46054;SDS011;31788;6.954;-71.872;2022-10-16T03:33:57;7.20;;;1.85;;
46054;SDS011;31788;6.954;-71.872;2022-10-16T03:36:23;5.93;;;1.98;;
46054;SDS011;31788;6.954;-71.872;2022-10-16T03:38:50;7.45;;;2.17;;
46054;SDS011;31788;6.954;-71.872;2022-10-16T03:41:16;5.88;;;2.50;;
46054;SDS011;31788;6.954;-71.872;2022-10-16T03:43:43;6.75;;;2.10;;
46054;SDS011;31788;6.954;-71.872;2022-10-16T03:46:09;6.97;;;2.10;;
46054;SDS011;31788;6.954;-71.872;2022-10-16T03:48:36;5.70;;;1.75;;
46054;SDS011;31788;6.954;-71.872;2022-10-16T03:51:05;5.18;;;1.85;;
46054;SDS011;31788;6.954;-71.872;2022-10-16T03:53:32;6.78;;;2.60;;
46054;SDS011;31788;6.954;-71.872;2022-10-16T03:55:58;7.15;;;3.00;;
46054;SDS011;31788;6.954;-71.872;2022-10-16T03:58:25;8.18;;;3.05;;
46054;SDS011;31788;6.954;-71.872;2022-10-16T04:00:52;8.82;;;2.90;;
46054;SDS011;31788;6.954;-71.872;2022-10-16T04:03:19;7.13;;;2.97;;
46054;SDS011;31788;6.954;-71.872;2022-10-16T04:05:46;6.78;;;2.58;;
46054;SDS011;31788;6.954;-71.872;2022-10-16T04:08:13;7.70;;;2.00;;
46054;SDS011;31788;6.954;-71.872;2022-10-16T04:10:39;7.38;;;2.22;;
46054;SDS011;31788;6.954;-71.872;2022-10-16T04:13:09;8.57;;;2.00;;
46054;SDS011;31788;6.954;-71.872;2022-10-16T04:15:36;8.30;;;2.13;;
46054;SDS011;31788;6.954;-71.872;2022-10-16T04:18:03;9.25;;;2.08;;
46054;SDS011;31788;6.954;-71.872;2022-10-16T04:20:30;7.40;;;1.63;;
46054;SDS011;31788;6.954;-71.872;2022-10-16T04:22:57;7.65;;;2.00;;
46054;SDS011;31788;6.954;-71.872;2022-10-16T04:25:23;7.80;;;2.15;;
46054;SDS011;31788;6.954;-71.872;2022-10-16T04:27:52;6.45;;;2.08;;
46054;SDS011;31788;6.954;-71.872;2022-10-16T04:30:19;5.50;;;2.00;;
46054;SDS011;31788;6.954;-71.872;2022-10-16T04:32:50;6.07;;;2.08;;
46054;SDS011;31788;6.954;-71.872;2022-10-16T04:35:17;5.47;;;1.80;;
46054;SDS011;31788;6.954;-71.872;2022-10-16T04:37:45;4.90;;;1.73;;
46054;SDS011;31788;6.954;-71.872;2022-10-16T04:40:11;5.65;;;1.90;;
46054;SDS011;31788;6.954;-71.872;2022-10-16T04:42:38;3.83;;;1.90;;
46054;SDS011;31788;6.954;-71.872;2022-10-16T04:45:05;6.05;;;1.92;;
46054;SDS011;31788;6.954;-71.872;2022-10-16T04:47:33;5.65;;;1.70;;
46054;SDS011;31788;6.954;-71.872;2022-10-16T04:49:59;6.32;;;2.03;;
46054;SDS011;31788;6.954;-71.872;2022-10-16T04:52:28;6.50;;;1.83;;
46054;SDS011;31788;6.954;-71.872;2022-10-16T04:54:56;8.10;;;2.42;;
46054;SDS011;31788;6.954;-71.872;2022-10-16T04:57:26;6.70;;;2.30;;
46054;SDS011;31788;6.954;-71.872;2022-10-16T04:59:53;8.10;;;3.30;;
46054;SDS011;31788;6.954;-71.872;2022-10-16T05:02:20;7.50;;;3.60;;
46054;SDS011;31788;6.954;-71.872;2022-10-16T05:04:47;11.73;;;5.20;;
46054;SDS011;31788;6.954;-71.872;2022-10-16T05:07:13;8.82;;;3.90;;
46054;SDS011;31788;6.954;-71.872;2022-10-16T05:09:40;8.07;;;3.33;;
46054;SDS011;31788;6.954;-71.872;2022-10-16T05:12:07;7.30;;;2.90;;
46054;SDS011;31788;6.954;-71.872;2022-10-16T05:14:33;5.30;;;2.40;;
46054;SDS011;31788;6.954;-71.872;2022-10-16T05:17:00;5.50;;;2.00;;
46054;SDS011;31788;6.954;-71.872;2022-10-16T05:19:27;5.50;;;2.00;;
46054;SDS011;31788;6.954;-71.872;2022-10-16T05:21:53;7.28;;;1.80;;
46054;SDS011;31788;6.954;-71.872;2022-10-16T05:24:20;5.90;;;1.90;;
46054;SDS011;31788;6.954;-71.872;2022-10-16T05:26:47;6.18;;;2.00;;
46054;SDS011;31788;6.954;-71.872;2022-10-16T05:29:13;6.05;;;1.60;;
46054;SDS011;31788;6.954;-71.872;2022-10-16T05:31:40;5.18;;;1.40;;
46054;SDS011;31788;6.954;-71.872;2022-10-16T05:34:06;5.40;;;1.70;;
46054;SDS011;31788;6.954;-71.872;2022-10-16T05:36:33;7.03;;;1.67;;
46054;SDS011;31788;6.954;-71.872;2022-10-16T05:39:00;4.60;;;2.10;;
46054;SDS011;31788;6.954;-71.872;2022-10-16T05:41:26;6.63;;;2.70;;
46054;SDS011;31788;6.954;-71.872;2022-10-16T05:43:53;4.35;;;1.92;;
46054;SDS011;31788;6.954;-71.872;2022-10-16T05:46:19;4.05;;;1.70;;
46054;SDS011;31788;6.954;-71.872;2022-10-16T05:48:46;5.07;;;1.65;;
46054;SDS011;31788;6.954;-71.872;2022-10-16T05:51:13;6.53;;;1.50;;
46054;SDS011;31788;6.954;-71.872;2022-10-16T05:53:41;5.15;;;1.50;;
46054;SDS011;31788;6.954;-71.872;2022-10-16T05:56:09;5.00;;;1.35;;
46054;SDS011;31788;6.954;-71.872;2022-10-16T05:58:38;7.75;;;1.88;;
46054;SDS011;31788;6.954;-71.872;2022-10-16T06:01:16;3.70;;;1.37;;
46054;SDS011;31788;6.954;-71.872;2022-10-16T06:03:44;3.67;;;1.42;;
46054;SDS011;31788;6.954;-71.872;2022-10-16T06:06:11;5.47;;;1.60;;
46054;SDS011;31788;6.954;-71.872;2022-10-16T06:08:44;5.50;;;1.73;;
46054;SDS011;31788;6.954;-71.872;2022-10-16T06:11:13;3.70;;;1.55;;
46054;SDS011;31788;6.954;-71.872;2022-10-16T06:13:41;5.38;;;1.80;;
46054;SDS011;31788;6.954;-71.872;2022-10-16T06:16:09;8.48;;;4.15;;
46054;SDS011;31788;6.954;-71.872;2022-10-16T06:18:36;7.20;;;3.70;;
46054;SDS011;31788;6.954;-71.872;2022-10-16T06:21:10;6.38;;;2.60;;
46054;SDS011;31788;6.954;-71.872;2022-10-16T06:23:39;8.75;;;2.45;;
46054;SDS011;31788;6.954;-71.872;2022-10-16T06:26:09;5.90;;;2.40;;
46054;SDS011;31788;6.954;-71.872;2022-10-16T06:28:38;6.45;;;2.10;;
46054;SDS011;31788;6.954;-71.872;2022-10-16T06:31:05;4.28;;;1.60;;
46054;SDS011;31788;6.954;-71.872;2022-10-16T06:33:34;6.07;;;1.67;;
46054;SDS011;31788;6.954;-71.872;2022-10-16T06:36:01;5.93;;;2.10;;
46054;SDS011;31788;6.954;-71.872;2022-10-16T06:38:33;5.53;;;1.75;;
46054;SDS011;31788;6.954;-71.872;2022-10-16T06:41:00;4.03;;;1.70;;
46054;SDS011;31788;6.954;-71.872;2022-10-16T06:43:28;4.78;;;1.80;;
46054;SDS011;31788;6.954;-71.872;2022-10-16T06:45:58;4.22;;;1.50;;
46054;SDS011;31788;6.954;-71.872;2022-10-16T06:48:27;5.15;;;1.50;;
46054;SDS011;31788;6.954;-71.872;2022-10-16T06:51:08;6.30;;;1.70;;
46054;SDS011;31788;6.954;-71.872;2022-10-16T06:53:43;6.37;;;1.60;;
46054;SDS011;31788;6.954;-71.872;2022-10-16T06:56:15;5.68;;;1.50;;
46054;SDS011;31788;6.954;-71.872;2022-10-16T06:58:49;4.90;;;1.40;;
46054;SDS011;31788;6.954;-71.872;2022-10-16T07:01:17;5.50;;;1.45;;
46054;SDS011;31788;6.954;-71.872;2022-10-16T07:03:45;8.20;;;1.50;;
46054;SDS011;31788;6.954;-71.872;2022-10-16T07:06:14;3.90;;;1.30;;
46054;SDS011;31788;6.954;-71.872;2022-10-16T07:08:44;4.57;;;1.40;;
46054;SDS011;31788;6.954;-71.872;2022-10-16T07:11:12;5.03;;;1.70;;
46054;SDS011;31788;6.954;-71.872;2022-10-16T07:13:41;4.85;;;1.30;;
46054;SDS011;31788;6.954;-71.872;2022-10-16T07:16:10;4.90;;;1.25;;
46054;SDS011;31788;6.954;-71.872;2022-10-16T07:18:38;2.95;;;1.30;;
46054;SDS011;31788;6.954;-71.872;2022-10-16T07:21:06;5.18;;;1.60;;
46054;SDS011;31788;6.954;-71.872;2022-10-16T07:23:34;6.80;;;1.63;;
46054;SDS011;31788;6.954;-71.872;2022-10-16T07:26:00;2.53;;;1.02;;
46054;SDS011;31788;6.954;-71.872;2022-10-16T07:28:27;5.60;;;1.50;;
46054;SDS011;31788;6.954;-71.872;2022-10-16T07:30:54;5.85;;;1.45;;
46054;SDS011;31788;6.954;-71.872;2022-10-16T07:33:21;4.93;;;1.52;;
46054;SDS011;31788;6.954;-71.872;2022-10-16T07:35:51;6.20;;;1.50;;
46054;SDS011;31788;6.954;-71.872;2022-10-16T07:38:18;4.38;;;1.52;;
46054;SDS011;31788;6.954;-71.872;2022-10-16T07:40:46;6.05;;;1.40;;
46054;SDS011;31788;6.954;-71.872;2022-10-16T07:43:13;5.38;;;1.55;;
46054;SDS011;31788;6.954;-71.872;2022-10-16T07:45:49;5.88;;;1.45;;
46054;SDS011;31788;6.954;-71.872;2022-10-16T07:48:16;5.43;;;1.47;;
46054;SDS011;31788;6.954;-71.872;2022-10-16T07:50:44;4.68;;;1.60;;
46054;SDS011;31788;6.954;-71.872;2022-10-16T07:53:11;3.83;;;1.40;;
46054;SDS011;31788;6.954;-71.872;2022-10-16T07:55:38;8.10;;;1.85;;
46054;SDS011;31788;6.954;-71.872;2022-10-16T07:58:04;5.63;;;1.75;;
46054;SDS011;31788;6.954;-71.872;2022-10-16T08:00:31;8.63;;;1.70;;
46054;SDS011;31788;6.954;-71.872;2022-10-16T08:02:58;7.45;;;1.60;;
46054;SDS011;31788;6.954;-71.872;2022-10-16T08:05:26;4.53;;;1.73;;
46054;SDS011;31788;6.954;-71.872;2022-10-16T08:07:53;6.18;;;1.50;;
46054;SDS011;31788;6.954;-71.872;2022-10-16T08:10:22;7.28;;;1.80;;
46054;SDS011;31788;6.954;-71.872;2022-10-16T08:12:50;5.88;;;1.75;;
46054;SDS011;31788;6.954;-71.872;2022-10-16T08:15:17;8.65;;;2.22;;
46054;SDS011;31788;6.954;-71.872;2022-10-16T08:17:44;4.85;;;1.77;;
46054;SDS011;31788;6.954;-71.872;2022-10-16T08:20:20;6.50;;;1.60;;
46054;SDS011;31788;6.954;-71.872;2022-10-16T08:22:46;5.63;;;1.67;;
46054;SDS011;31788;6.954;-71.872;2022-10-16T08:25:13;6.00;;;1.80;;
46054;SDS011;31788;6.954;-71.872;2022-10-16T08:27:39;7.30;;;1.60;;
46054;SDS011;31788;6.954;-71.872;2022-10-16T08:30:06;7.38;;;1.70;;
46054;SDS011;31788;6.954;-71.872;2022-10-16T08:32:33;4.60;;;1.52;;
46054;SDS011;31788;6.954;-71.872;2022-10-16T08:34:59;6.30;;;1.92;;
46054;SDS011;31788;6.954;-71.872;2022-10-16T08:40:48;4.90;;;1.83;;
46054;SDS011;31788;6.954;-71.872;2022-10-16T08:48:42;7.25;;;2.08;;
46054;SDS011;31788;6.954;-71.872;2022-10-16T08:53:58;7.00;;;1.88;;
46054;SDS011;31788;6.954;-71.872;2022-10-16T08:56:30;6.97;;;2.33;;
46054;SDS011;31788;6.954;-71.872;2022-10-16T08:58:58;6.75;;;2.10;;
46054;SDS011;31788;6.954;-71.872;2022-10-16T09:01:32;5.40;;;1.80;;
46054;SDS011;31788;6.954;-71.872;2022-10-16T09:07:49;6.10;;;2.22;;
46054;SDS011;31788;6.954;-71.872;2022-10-16T09:09:52;4.95;;;1.88;;
46054;SDS011;31788;6.954;-71.872;2022-10-16T09:17:59;6.65;;;1.80;;
46054;SDS011;31788;6.954;-71.872;2022-10-16T09:23:25;9.23;;;2.30;;
46054;SDS011;31788;6.954;-71.872;2022-10-16T09:25:53;6.20;;;1.92;;
46054;SDS011;31788;6.954;-71.872;2022-10-16T09:28:22;8.63;;;2.60;;
46054;SDS011;31788;6.954;-71.872;2022-10-16T09:30:48;7.22;;;1.98;;
46054;SDS011;31788;6.954;-71.872;2022-10-16T09:33:15;9.13;;;2.50;;
46054;SDS011;31788;6.954;-71.872;2022-10-16T09:36:02;7.53;;;2.10;;
46054;SDS011;31788;6.954;-71.872;2022-10-16T09:38:32;5.35;;;1.80;;
46054;SDS011;31788;6.954;-71.872;2022-10-16T09:46:30;6.38;;;2.10;;
46054;SDS011;31788;6.954;-71.872;2022-10-16T09:49:49;10.15;;;2.30;;
46054;SDS011;31788;6.954;-71.872;2022-10-16T09:52:13;9.57;;;2.30;;
46054;SDS011;31788;6.954;-71.872;2022-10-16T09:54:53;7.37;;;2.07;;
46054;SDS011;31788;6.954;-71.872;2022-10-16T09:57:28;7.30;;;2.08;;
46054;SDS011;31788;6.954;-71.872;2022-10-16T09:59:58;8.32;;;2.35;;
46054;SDS011;31788;6.954;-71.872;2022-10-16T10:02:31;7.25;;;2.15;;
46054;SDS011;31788;6.954;-71.872;2022-10-16T10:05:01;6.65;;;2.40;;
46054;SDS011;31788;6.954;-71.872;2022-10-16T10:07:37;7.45;;;2.85;;
46054;SDS011;31788;6.954;-71.872;2022-10-16T10:10:23;6.15;;;2.30;;
46054;SDS011;31788;6.954;-71.872;2022-10-16T10:12:54;7.80;;;2.60;;
46054;SDS011;31788;6.954;-71.872;2022-10-16T10:15:22;6.75;;;2.53;;
46054;SDS011;31788;6.954;-71.872;2022-10-16T10:17:59;7.28;;;2.80;;
46054;SDS011;31788;6.954;-71.872;2022-10-16T10:20:32;8.00;;;2.70;;
46054;SDS011;31788;6.954;-71.872;2022-10-16T10:23:00;6.75;;;2.50;;
46054;SDS011;31788;6.954;-71.872;2022-10-16T10:25:49;8.20;;;2.80;;
46054;SDS011;31788;6.954;-71.872;2022-10-16T10:31:25;6.97;;;2.60;;
46054;SDS011;31788;6.954;-71.872;2022-10-16T10:36:50;6.28;;;2.50;;
46054;SDS011;31788;6.954;-71.872;2022-10-16T10:39:32;11.43;;;2.42;;
46054;SDS011;31788;6.954;-71.872;2022-10-16T10:50:45;18.08;;;2.90;;
46054;SDS011;31788;6.954;-71.872;2022-10-16T11:07:32;9.32;;;2.50;;
46054;SDS011;31788;6.954;-71.872;2022-10-16T11:10:12;9.35;;;2.40;;
46054;SDS011;31788;6.954;-71.872;2022-10-16T11:12:49;10.80;;;2.55;;
46054;SDS011;31788;6.954;-71.872;2022-10-16T11:15:31;9.43;;;2.47;;
46054;SDS011;31788;6.954;-71.872;2022-10-16T11:18:19;6.57;;;2.20;;
46054;SDS011;31788;6.954;-71.872;2022-10-16T11:21:07;6.68;;;2.08;;
46054;SDS011;31788;6.954;-71.872;2022-10-16T11:24:20;7.72;;;2.10;;
46054;SDS011;31788;6.954;-71.872;2022-10-16T11:26:36;6.90;;;1.95;;
46054;SDS011;31788;6.954;-71.872;2022-10-16T11:29:10;7.63;;;2.30;;
46054;SDS011;31788;6.954;-71.872;2022-10-16T11:31:46;8.15;;;2.10;;
46054;SDS011;31788;6.954;-71.872;2022-10-16T11:34:23;6.78;;;2.25;;
46054;SDS011;31788;6.954;-71.872;2022-10-16T11:36:52;8.02;;;2.47;;
46054;SDS011;31788;6.954;-71.872;2022-10-16T11:39:26;7.15;;;2.30;;
46054;SDS011;31788;6.954;-71.872;2022-10-16T11:42:04;7.63;;;2.40;;
46054;SDS011;31788;6.954;-71.872;2022-10-16T11:47:48;8.00;;;3.20;;
46054;SDS011;31788;6.954;-71.872;2022-10-16T11:50:25;9.27;;;3.50;;
46054;SDS011;31788;6.954;-71.872;2022-10-16T11:53:13;7.60;;;3.78;;
46054;SDS011;31788;6.954;-71.872;2022-10-16T11:55:59;7.90;;;3.20;;
46054;SDS011;31788;6.954;-71.872;2022-10-16T12:03:45;8.85;;;3.05;;
46054;SDS011;31788;6.954;-71.872;2022-10-16T23:11:50;2.38;;;1.60;;
46054;SDS011;31788;6.954;-71.872;2022-10-16T23:14:20;3.35;;;1.50;;
46054;SDS011;31788;6.954;-71.872;2022-10-16T23:16:47;3.53;;;1.65;;
46054;SDS011;31788;6.954;-71.872;2022-10-16T23:19:14;2.17;;;1.60;;
46054;SDS011;31788;6.954;-71.872;2022-10-16T23:21:41;3.17;;;2.08;;
46054;SDS011;31788;6.954;-71.872;2022-10-16T23:24:08;2.67;;;1.70;;
46054;SDS011;31788;6.954;-71.872;2022-10-16T23:26:34;2.90;;;1.63;;
46054;SDS011;31788;6.954;-71.872;2022-10-16T23:29:01;4.20;;;1.90;;
46054;SDS011;31788;6.954;-71.872;2022-10-16T23:31:28;4.38;;;2.50;;
46054;SDS011;31788;6.954;-71.872;2022-10-16T23:33:55;8.90;;;5.00;;
46054;SDS011;31788;6.954;-71.872;2022-10-16T23:36:22;10.63;;;5.32;;
46054;SDS011;31788;6.954;-71.872;2022-10-16T23:38:49;9.50;;;5.65;;
46054;SDS011;31788;6.954;-71.872;2022-10-16T23:41:17;6.75;;;4.00;;
46054;SDS011;31788;6.954;-71.872;2022-10-16T23:43:45;5.97;;;3.00;;
46054;SDS011;31788;6.954;-71.872;2022-10-16T23:46:12;6.28;;;3.35;;
46054;SDS011;31788;6.954;-71.872;2022-10-16T23:48:39;5.18;;;2.97;;
46054;SDS011;31788;6.954;-71.872;2022-10-16T23:51:07;5.73;;;3.47;;
46054;SDS011;31788;6.954;-71.872;2022-10-16T23:53:34;6.90;;;3.97;;
46054;SDS011;31788;6.954;-71.872;2022-10-16T23:56:00;6.43;;;3.45;;
46054;SDS011;31788;6.954;-71.872;2022-10-16T23:58:27;4.55;;;3.20;;
